createdAt,value
2022-08-17T00:03:51.923Z,98886.22
2022-08-17T00:06:54.086Z,98883.50
2022-08-17T00:09:57.579Z,98893.78
2022-08-17T00:13:00.010Z,98895.91
2022-08-17T00:16:06.063Z,98902.13
2022-08-17T00:19:12.024Z,98897.69
2022-08-17T00:22:30.908Z,98892.16
2022-08-17T00:25:36.332Z,98894.69
2022-08-17T00:28:38.968Z,98900.31
2022-08-17T00:31:41.062Z,98901.91
2022-08-17T00:34:43.141Z,98901.00
2022-08-17T00:37:45.221Z,98895.13
2022-08-17T00:40:55.886Z,98902.03
2022-08-17T00:44:02.359Z,98898.75
2022-08-17T00:47:04.537Z,98898.78
2022-08-17T00:50:09.035Z,98897.91
2022-08-17T00:53:11.128Z,98906.50
2022-08-17T00:56:18.939Z,98903.16
2022-08-17T00:59:22.688Z,98903.41
2022-08-17T01:02:24.803Z,98905.41
2022-08-17T01:05:29.176Z,98898.59
2022-08-17T01:08:31.863Z,98900.53
2022-08-17T01:11:36.235Z,98908.72
2022-08-17T01:14:39.095Z,98912.19
2022-08-17T01:17:41.251Z,98903.09
2022-08-17T01:20:49.607Z,98911.41
2022-08-17T01:23:51.702Z,98908.09
2022-08-17T01:26:53.803Z,98921.41
2022-08-17T01:30:03.980Z,98917.69
2022-08-17T01:33:06.084Z,98907.72
2022-08-17T01:36:08.421Z,98910.81
2022-08-17T01:39:18.647Z,98913.13
2022-08-17T01:42:48.652Z,98913.25
2022-08-17T01:46:02.624Z,98915.16
2022-08-17T01:49:10.704Z,98917.69
2022-08-17T01:52:12.860Z,98923.97
2022-08-17T01:55:16.727Z,98925.03
2022-08-17T01:58:19.590Z,98938.75
2022-08-17T02:01:26.944Z,98948.47
2022-08-17T02:04:29.081Z,98952.53
2022-08-17T02:07:31.194Z,98953.72
2022-08-17T02:10:34.196Z,98948.06
2022-08-17T02:13:37.938Z,98964.69
2022-08-17T02:16:40.633Z,98956.88
2022-08-17T02:19:43.009Z,98962.41
2022-08-17T02:22:45.909Z,98963.78
2022-08-17T02:25:48.701Z,98965.72
2022-08-17T02:28:51.490Z,98972.72
2022-08-17T02:31:53.655Z,98971.75
2022-08-17T02:35:00.040Z,98970.00
2022-08-17T02:38:02.305Z,98976.44
2022-08-17T02:41:04.633Z,98979.13
2022-08-17T02:44:06.936Z,98973.00
2022-08-17T02:47:09.543Z,98986.63
2022-08-17T02:50:13.259Z,98983.25
2022-08-17T02:53:15.730Z,98979.94
2022-08-17T02:56:17.846Z,98982.94
2022-08-17T02:59:19.964Z,98989.19
2022-08-17T03:02:22.043Z,98974.78
2022-08-17T03:05:25.948Z,98984.19
2022-08-17T03:08:28.347Z,98979.19
2022-08-17T03:11:30.512Z,98978.75
2022-08-17T03:14:32.683Z,98972.13
2022-08-17T03:17:34.743Z,98980.25
2022-08-17T03:20:37.008Z,98973.63
2022-08-17T03:23:41.221Z,98985.38
2022-08-17T03:26:43.956Z,98988.50
2022-08-17T03:29:46.095Z,98971.97
2022-08-17T03:32:49.886Z,98979.72
2022-08-17T03:35:52.159Z,98977.53
2022-08-17T03:38:54.544Z,98977.13
2022-08-17T03:42:09.144Z,98986.66
2022-08-17T03:45:49.526Z,98981.28
2022-08-17T03:49:12.783Z,98978.41
2022-08-17T03:52:33.206Z,98993.22
2022-08-17T03:55:55.076Z,98983.41
2022-08-17T03:58:57.178Z,98988.84
2022-08-17T04:02:04.989Z,99000.06
2022-08-17T04:05:07.655Z,99003.38
2022-08-17T04:08:10.124Z,98994.28
2022-08-17T04:11:12.207Z,98999.25
2022-08-17T04:14:14.348Z,98999.72
2022-08-17T04:17:16.417Z,99005.34
2022-08-17T04:20:19.908Z,99008.44
2022-08-17T04:23:21.967Z,98994.88
2022-08-17T04:26:53.598Z,99005.53
2022-08-17T04:29:54.607Z,99002.31
2022-08-17T04:33:28.281Z,98998.59
2022-08-17T04:36:30.384Z,99011.63
2022-08-17T04:39:33.908Z,99008.50
2022-08-17T04:42:36.161Z,99008.97
2022-08-17T04:45:55.686Z,99004.91
2022-08-17T04:48:59.203Z,99005.00
2022-08-17T04:52:04.375Z,99011.66
2022-08-17T04:55:07.539Z,99012.50
2022-08-17T04:58:09.861Z,99020.53
2022-08-17T05:01:12.204Z,99017.78
2022-08-17T05:04:34.658Z,99017.16
2022-08-17T05:07:37.480Z,99033.38
2022-08-17T05:10:45.353Z,99029.53
2022-08-17T05:13:50.274Z,99033.66
2022-08-17T05:16:52.650Z,99036.66
2022-08-17T05:19:55.121Z,99037.97
2022-08-17T05:23:00.831Z,99037.72
2022-08-17T05:26:03.123Z,99046.69
2022-08-17T05:29:08.399Z,99058.56
2022-08-17T05:32:37.897Z,99055.59
2022-08-17T05:35:36.334Z,99074.09
2022-08-17T05:38:38.455Z,99072.09
2022-08-17T05:41:40.951Z,99074.31
2022-08-17T05:44:43.036Z,99072.47
2022-08-17T05:47:45.443Z,99081.22
2022-08-17T05:51:20.616Z,99092.13
2022-08-17T05:54:46.904Z,99089.84
2022-08-17T05:58:22.723Z,99095.03
2022-08-17T06:01:40.534Z,99099.16
2022-08-17T06:05:14.470Z,99106.28
2022-08-17T06:08:51.871Z,99100.16
2022-08-17T06:12:25.780Z,99101.22
2022-08-17T06:15:50.064Z,99098.56
2022-08-17T06:19:30.709Z,99114.53
2022-08-17T06:22:34.921Z,99106.78
2022-08-17T06:25:49.764Z,99109.59
2022-08-17T06:29:03.560Z,99111.06
2022-08-17T06:32:12.741Z,99110.88
2022-08-17T06:35:19.385Z,99105.28
2022-08-17T06:38:48.193Z,99110.09
2022-08-17T06:42:02.303Z,99104.91
2022-08-17T06:45:39.354Z,99102.97
2022-08-17T06:48:47.218Z,99104.13
2022-08-17T06:52:45.763Z,99098.25
2022-08-17T06:56:13.601Z,99118.88
2022-08-17T06:59:19.567Z,99120.00
2022-08-17T07:02:52.680Z,99119.47
2022-08-17T07:05:59.526Z,99121.78
2022-08-17T07:09:31.412Z,99120.88
2022-08-17T07:12:37.964Z,99118.75
2022-08-17T07:15:42.581Z,99125.63
2022-08-17T07:18:44.688Z,99126.31
2022-08-17T07:22:12.765Z,99128.78
2022-08-17T07:25:18.508Z,99125.53
2022-08-17T07:28:23.128Z,99127.66
2022-08-17T07:31:25.691Z,99129.19
2022-08-17T07:34:29.139Z,99129.63
2022-08-17T07:37:33.397Z,99125.88
2022-08-17T07:40:44.116Z,99127.22
2022-08-17T07:43:48.428Z,99137.97
2022-08-17T07:47:10.927Z,99130.91
2022-08-17T07:50:29.337Z,99135.91
2022-08-17T07:53:32.077Z,99134.72
2022-08-17T07:56:38.399Z,99141.16
2022-08-17T08:00:01.928Z,99138.69
2022-08-17T08:03:31.922Z,99144.13
2022-08-17T08:06:37.926Z,99134.06
2022-08-17T08:09:47.175Z,99129.72
2022-08-17T08:12:53.744Z,99128.41
2022-08-17T08:16:25.615Z,99123.88
2022-08-17T08:19:29.347Z,99121.38
2022-08-17T08:23:09.829Z,99130.78
2022-08-17T08:26:18.799Z,99117.69
2022-08-17T08:29:55.270Z,99124.34
2022-08-17T08:33:46.470Z,99136.34
2022-08-17T08:37:17.575Z,99133.91
2022-08-17T08:40:55.971Z,99133.63
2022-08-17T08:44:17.163Z,99139.59
2022-08-17T08:47:35.554Z,99140.22
2022-08-17T08:51:06.484Z,99145.94
2022-08-17T08:54:53.934Z,99148.13
2022-08-17T08:58:31.583Z,99146.63
2022-08-17T09:01:52.141Z,99159.63
2022-08-17T09:05:26.106Z,99161.66
2022-08-17T09:08:50.103Z,99164.78
2022-08-17T09:12:10.111Z,99157.06
2022-08-17T09:15:32.110Z,99161.38
2022-08-17T09:19:00.093Z,99151.44
2022-08-17T09:22:36.613Z,99149.00
2022-08-17T09:25:55.336Z,99154.66
2022-08-17T09:29:02.982Z,99160.84
2022-08-17T09:32:17.721Z,99144.00
2022-08-17T09:35:36.484Z,99154.88
2022-08-17T09:39:02.100Z,99152.31
2022-08-17T09:42:16.220Z,99152.69
2022-08-17T09:45:24.129Z,99158.66
2022-08-17T09:48:48.445Z,99154.25
2022-08-17T09:52:26.098Z,99156.44
2022-08-17T09:55:59.393Z,99157.81
2022-08-17T09:59:44.815Z,99160.81
2022-08-17T10:03:30.782Z,99159.78
2022-08-17T10:07:05.252Z,99151.72
2022-08-17T10:10:21.347Z,99152.25
2022-08-17T10:13:53.348Z,99158.28
2022-08-17T10:17:00.835Z,99156.06
2022-08-17T10:20:34.077Z,99146.97
2022-08-17T10:23:56.264Z,99146.63
2022-08-17T10:27:00.736Z,99149.72
2022-08-17T10:30:06.458Z,99147.34
2022-08-17T10:33:16.715Z,99141.25
2022-08-17T10:36:54.742Z,99142.69
2022-08-17T10:40:21.424Z,99146.41
2022-08-17T10:44:36.702Z,99144.75
2022-08-17T10:47:17.876Z,99145.28
2022-08-17T10:50:46.167Z,99143.28
2022-08-17T10:53:49.404Z,99146.22
2022-08-17T10:56:58.014Z,99144.47
2022-08-17T11:00:24.325Z,99152.97
2022-08-17T11:03:32.941Z,99151.84
2022-08-17T11:06:37.899Z,99150.22
2022-08-17T11:10:13.625Z,99143.56
2022-08-17T11:13:30.615Z,99154.03
2022-08-17T11:16:48.111Z,99155.91
2022-08-17T11:20:19.737Z,99152.22
2022-08-17T11:23:55.455Z,99148.69
2022-08-17T11:27:05.680Z,99146.53
2022-08-17T11:30:41.033Z,99148.84
2022-08-17T11:33:52.431Z,99135.53
2022-08-17T11:37:54.933Z,99136.59
2022-08-17T11:41:12.987Z,99136.69
2022-08-17T11:44:44.104Z,99140.16
2022-08-17T11:48:27.085Z,99130.41
2022-08-17T11:52:01.335Z,99128.34
2022-08-17T11:55:31.948Z,99125.22
2022-08-17T11:58:29.932Z,99140.47
2022-08-17T12:01:31.952Z,99130.56
2022-08-17T12:04:35.014Z,99128.13
2022-08-17T12:07:42.988Z,99128.09
2022-08-17T12:11:00.746Z,99128.34
2022-08-17T12:14:02.869Z,99121.22
2022-08-17T12:17:06.662Z,99120.22
2022-08-17T12:20:18.176Z,99119.97
2022-08-17T12:23:41.996Z,99122.38
2022-08-17T12:26:53.577Z,99115.88
2022-08-17T12:29:55.773Z,99113.56
2022-08-17T12:32:58.253Z,99103.44
2022-08-17T12:36:03.446Z,99104.06
2022-08-17T12:39:14.228Z,99104.09
2022-08-17T12:42:37.497Z,99114.28
2022-08-17T12:45:40.135Z,99108.91
2022-08-17T12:48:59.668Z,99115.22
2022-08-17T12:52:26.648Z,99104.78
2022-08-17T12:55:32.492Z,99085.41
2022-08-17T12:58:54.291Z,99092.63
2022-08-17T13:01:56.723Z,99095.38
2022-08-17T13:05:00.988Z,99090.19
2022-08-17T13:08:15.640Z,99091.19
2022-08-17T13:11:24.208Z,99094.50
2022-08-17T13:14:26.616Z,99098.06
2022-08-17T13:17:32.499Z,99095.97
2022-08-17T13:20:34.899Z,99081.56
2022-08-17T13:23:37.032Z,99094.88
2022-08-17T13:27:02.155Z,99094.72
2022-08-17T13:30:12.220Z,99089.94
2022-08-17T13:33:43.360Z,99091.22
2022-08-17T13:36:48.847Z,99092.28
2022-08-17T13:40:18.931Z,99095.78
2022-08-17T13:43:46.176Z,99099.78
2022-08-17T13:46:52.521Z,99085.38
2022-08-17T13:49:59.215Z,99096.16
2022-08-17T13:53:01.431Z,99098.91
2022-08-17T13:56:38.338Z,99099.28
2022-08-17T13:59:54.706Z,99093.13
2022-08-17T14:02:58.910Z,99091.59
2022-08-17T14:06:01.672Z,99088.88
2022-08-17T14:09:04.861Z,99083.69
2022-08-17T14:12:10.879Z,99079.78
2022-08-17T14:15:15.324Z,99071.66
2022-08-17T14:18:19.004Z,99073.88
2022-08-17T14:21:45.463Z,99068.81
2022-08-17T14:24:47.823Z,99067.88
2022-08-17T14:27:53.407Z,99072.53
2022-08-17T14:30:56.055Z,99067.25
2022-08-17T14:33:59.019Z,99071.19
2022-08-17T14:37:01.149Z,99067.78
2022-08-17T14:40:08.431Z,99064.19
2022-08-17T14:43:10.597Z,99066.47
2022-08-17T14:46:12.747Z,99072.44
2022-08-17T14:49:16.146Z,99063.59
2022-08-17T14:52:21.602Z,99073.59
2022-08-17T14:55:23.843Z,99063.97
2022-08-17T14:58:26.095Z,99060.38
2022-08-17T15:01:28.943Z,99064.53
2022-08-17T15:04:31.166Z,99069.38
2022-08-17T15:07:33.303Z,99064.97
2022-08-17T15:10:35.918Z,99061.97
2022-08-17T15:13:38.096Z,99066.44
2022-08-17T15:16:55.250Z,99057.53
2022-08-17T15:19:57.529Z,99057.56
2022-08-17T15:22:59.739Z,99068.38
2022-08-17T15:26:01.876Z,99064.88
2022-08-17T15:29:04.140Z,99054.59
2022-08-17T15:32:06.705Z,99057.16
2022-08-17T15:35:11.367Z,99059.97
2022-08-17T15:38:14.379Z,99060.66
2022-08-17T15:41:18.323Z,99060.84
2022-08-17T15:44:20.564Z,99056.50
2022-08-17T15:47:22.980Z,99051.69
2022-08-17T15:50:25.586Z,99059.38
2022-08-17T15:53:27.736Z,99049.97
2022-08-17T15:56:31.387Z,99045.72
2022-08-17T15:59:34.924Z,99041.34
2022-08-17T16:03:45.452Z,99025.75
2022-08-17T16:06:00.294Z,99023.00
2022-08-17T16:09:02.884Z,99025.41
2022-08-17T16:12:16.789Z,99024.53
2022-08-17T16:15:19.181Z,99037.81
2022-08-17T16:18:26.471Z,99036.94
2022-08-17T16:21:30.008Z,99039.25
2022-08-17T16:24:57.202Z,99039.38
2022-08-17T16:28:00.058Z,99039.91
2022-08-17T16:31:02.193Z,99046.47
2022-08-17T16:34:16.912Z,99047.69
2022-08-17T16:37:20.656Z,99050.19
2022-08-17T16:40:23.703Z,99033.84
2022-08-17T16:43:25.960Z,99048.94
2022-08-17T16:46:29.235Z,99045.75
2022-08-17T16:49:37.757Z,99055.91
2022-08-17T16:52:40.599Z,99057.09
2022-08-17T16:55:43.424Z,99065.13
2022-08-17T16:58:46.223Z,99073.47
2022-08-17T17:01:53.325Z,99073.19
2022-08-17T17:05:25.243Z,99072.25
2022-08-17T17:08:30.381Z,99069.63
2022-08-17T17:11:40.940Z,99074.84
2022-08-17T17:14:44.135Z,99060.28
2022-08-17T17:17:47.781Z,99056.69
2022-08-17T17:20:56.466Z,99057.44
2022-08-17T17:24:06.897Z,99056.00
2022-08-17T17:27:16.707Z,99059.03
2022-08-17T17:30:42.602Z,99064.94
2022-08-17T17:33:56.737Z,99065.38
2022-08-17T17:37:02.149Z,99062.38
2022-08-17T17:40:26.807Z,99067.53
2022-08-17T17:43:38.758Z,99067.94
2022-08-17T17:46:50.699Z,99056.06
2022-08-17T17:49:52.812Z,99062.84
2022-08-17T17:53:11.941Z,99064.25
2022-08-17T17:56:43.169Z,99071.31
2022-08-17T18:00:09.850Z,99060.13
2022-08-17T18:03:30.459Z,99062.84
2022-08-17T18:07:12.786Z,99064.28
2022-08-17T18:10:44.917Z,99068.03
2022-08-17T18:14:16.388Z,99062.94
2022-08-17T18:17:18.488Z,99056.91
2022-08-17T18:20:20.598Z,99046.88
2022-08-17T18:23:38.175Z,99044.69
2022-08-17T18:26:53.733Z,99053.22
2022-08-17T18:29:59.757Z,99063.81
2022-08-17T18:33:24.606Z,99069.38
2022-08-17T18:36:34.171Z,99070.63
2022-08-17T18:39:39.101Z,99069.91
2022-08-17T18:42:41.251Z,99067.63
2022-08-17T18:45:49.661Z,99070.63
2022-08-17T18:49:04.479Z,99079.25
2022-08-17T18:52:30.164Z,99084.28
2022-08-17T18:55:32.532Z,99086.78
2022-08-17T18:58:34.629Z,99080.75
2022-08-17T19:01:59.709Z,99083.41
2022-08-17T19:05:15.555Z,99074.00
2022-08-17T19:08:26.199Z,99067.03
2022-08-17T19:11:31.962Z,99065.25
2022-08-17T19:14:34.066Z,99061.75
2022-08-17T19:17:49.116Z,99058.00
2022-08-17T19:21:03.502Z,99064.16
2022-08-17T19:24:19.601Z,99066.72
2022-08-17T19:27:41.317Z,99062.44
2022-08-17T19:30:44.166Z,99058.91
2022-08-17T19:33:47.984Z,99057.47
2022-08-17T19:37:09.011Z,99061.38
2022-08-17T19:40:54.515Z,99069.69
2022-08-17T19:44:14.625Z,99072.91
2022-08-17T19:47:53.861Z,99076.66
2022-08-17T19:51:04.564Z,99074.03
2022-08-17T19:54:55.784Z,99061.31
2022-08-17T19:58:17.897Z,99067.78
2022-08-17T20:01:38.220Z,99067.16
2022-08-17T20:04:43.260Z,99063.66
2022-08-17T20:08:17.703Z,99069.31
2022-08-17T20:11:31.540Z,99071.69
2022-08-17T20:14:53.645Z,99073.97
2022-08-17T20:18:00.102Z,99072.16
2022-08-17T20:21:19.806Z,99069.25
2022-08-17T20:24:26.437Z,99073.50
2022-08-17T20:27:31.898Z,99066.28
2022-08-17T20:30:41.848Z,99060.28
2022-08-17T20:33:43.987Z,99060.25
2022-08-17T20:37:08.746Z,99060.50
2022-08-17T20:40:14.708Z,99063.75
2022-08-17T20:43:35.083Z,99058.25
2022-08-17T20:46:37.497Z,99053.28
2022-08-17T20:50:05.491Z,99054.16
2022-08-17T20:53:10.051Z,99049.44
2022-08-17T20:56:12.183Z,99049.53
2022-08-17T20:59:34.515Z,99050.03
2022-08-17T21:02:37.176Z,99057.94
2022-08-17T21:06:09.405Z,99050.88
2022-08-17T21:09:29.878Z,99048.69
2022-08-17T21:12:52.266Z,99048.44
2022-08-17T21:16:07.065Z,99056.34
2022-08-17T21:19:31.056Z,99060.34
2022-08-17T21:22:48.324Z,99050.63
2022-08-17T21:26:02.567Z,99044.69
2022-08-17T21:29:31.396Z,99045.75
2022-08-17T21:32:37.768Z,99040.94
2022-08-17T21:36:23.682Z,99029.72
2022-08-17T21:39:33.768Z,99023.88
2022-08-17T21:42:38.356Z,99024.69
2022-08-17T21:45:41.248Z,99019.13
2022-08-17T21:48:45.792Z,99019.47
2022-08-17T21:51:56.600Z,99027.41
2022-08-17T21:55:00.333Z,99018.03
2022-08-17T21:58:27.705Z,99031.16
2022-08-17T22:01:43.102Z,99029.31
2022-08-17T22:05:04.891Z,99024.75
2022-08-17T22:08:24.347Z,99023.03
2022-08-17T22:11:26.459Z,99019.06
2022-08-17T22:15:00.450Z,99024.56
2022-08-17T22:18:05.820Z,99030.19
2022-08-17T22:21:08.280Z,99021.53
2022-08-17T22:24:20.376Z,99025.88
2022-08-17T22:27:22.891Z,99039.88
2022-08-17T22:30:43.272Z,99040.63
2022-08-17T22:33:51.562Z,99049.09
2022-08-17T22:37:30.540Z,99047.50
2022-08-17T22:40:33.518Z,99048.47
2022-08-17T22:43:36.221Z,99040.25
2022-08-17T22:46:41.160Z,99031.69
2022-08-17T22:49:53.117Z,99035.00
2022-08-17T22:53:20.814Z,99030.81
2022-08-17T22:56:42.895Z,99030.63
2022-08-17T22:59:56.074Z,99030.34
2022-08-17T23:03:14.661Z,99024.03
2022-08-17T23:06:16.970Z,99023.13
2022-08-17T23:09:19.118Z,99021.59
2022-08-17T23:12:26.411Z,99012.59
2022-08-17T23:15:33.886Z,99002.13
2022-08-17T23:18:37.403Z,98990.53
2022-08-17T23:21:39.571Z,98990.81
2022-08-17T23:24:48.532Z,98986.03
2022-08-17T23:27:50.877Z,98990.81
2022-08-17T23:30:53.172Z,98984.13
2022-08-17T23:33:55.576Z,98988.16
2022-08-17T23:36:57.707Z,98980.13
2022-08-17T23:40:00.295Z,98983.94
2022-08-17T23:43:04.579Z,98971.88
2022-08-17T23:46:13.732Z,98971.28
2022-08-17T23:49:15.940Z,98969.50
2022-08-17T23:52:18.223Z,98964.97
2022-08-17T23:55:20.547Z,98958.25
2022-08-17T23:58:22.785Z,98951.47
